createdAt,value
2018-03-31T00:00:15.751Z,1.4
2018-03-31T00:01:18.113Z,1.5
2018-03-31T00:02:20.534Z,1.4
2018-03-31T00:03:22.863Z,1.4
2018-03-31T00:04:25.510Z,1.4
2018-03-31T00:05:28.164Z,1.4
2018-03-31T00:06:30.810Z,1.4
2018-03-31T00:07:33.493Z,1.4
2018-03-31T00:08:35.865Z,1.4
2018-03-31T00:09:38.515Z,1.4
2018-03-31T00:10:41.157Z,1.4
2018-03-31T00:11:43.539Z,1.4
2018-03-31T00:12:45.912Z,1.4
2018-03-31T00:13:48.277Z,1.4
2018-03-31T00:14:50.648Z,1.4
2018-03-31T00:15:53.024Z,1.4
2018-03-31T00:16:55.387Z,1.4
2018-03-31T00:17:57.751Z,1.4
2018-03-31T00:19:00.119Z,1.4
2018-03-31T00:20:02.496Z,1.4
2018-03-31T00:21:04.871Z,1.4
2018-03-31T00:22:07.241Z,1.4
2018-03-31T00:23:09.894Z,1.4
2018-03-31T00:24:12.260Z,1.4
2018-03-31T00:25:14.645Z,1.4
2018-03-31T00:26:17.009Z,1.4
2018-03-31T00:27:19.968Z,1.4
2018-03-31T00:28:22.329Z,1.5
2018-03-31T00:29:24.705Z,1.5
2018-03-31T00:30:27.062Z,1.5
2018-03-31T00:31:29.430Z,1.5
2018-03-31T00:32:31.808Z,1.4
2018-03-31T00:33:34.174Z,1.4
2018-03-31T00:34:36.841Z,1.4
2018-03-31T00:35:39.211Z,1.4
2018-03-31T00:36:41.585Z,1.5
2018-03-31T00:37:44.238Z,1.5
2018-03-31T00:38:46.608Z,1.5
2018-03-31T00:39:48.975Z,1.4
2018-03-31T00:40:51.342Z,1.4
2018-03-31T00:41:53.991Z,1.4
2018-03-31T00:42:56.641Z,1.4
2018-03-31T00:43:59.006Z,1.5
2018-03-31T00:45:01.662Z,1.5
2018-03-31T00:46:04.028Z,1.4
2018-03-31T00:47:06.403Z,1.5
2018-03-31T00:48:08.762Z,1.4
2018-03-31T00:49:11.127Z,1.4
2018-03-31T00:50:13.507Z,1.4
2018-03-31T00:51:15.885Z,1.4
2018-03-31T00:52:18.252Z,1.4
2018-03-31T00:53:20.623Z,1.4
2018-03-31T00:54:23.001Z,1.4
2018-03-31T00:55:25.389Z,1.3
2018-03-31T00:56:28.091Z,1.3
2018-03-31T00:57:30.460Z,1.4
2018-03-31T00:58:32.814Z,1.4
2018-03-31T00:59:35.195Z,1.4
2018-03-31T01:00:37.560Z,1.3
2018-03-31T01:01:39.926Z,1.3
2018-03-31T01:02:42.870Z,1.3
2018-03-31T01:03:45.241Z,1.3
2018-03-31T01:04:47.610Z,1.3
2018-03-31T01:05:50.255Z,1.3
2018-03-31T01:06:52.630Z,1.3
2018-03-31T01:07:54.994Z,1.3
2018-03-31T01:08:57.671Z,1.3
2018-03-31T01:10:00.033Z,1.3
2018-03-31T01:11:02.401Z,1.3
2018-03-31T01:12:04.770Z,1.3
2018-03-31T01:13:07.711Z,1.3
2018-03-31T01:14:10.074Z,1.3
2018-03-31T01:15:13.308Z,1.3
2018-03-31T01:16:15.669Z,1.3
2018-03-31T01:17:18.045Z,1.3
2018-03-31T01:18:20.419Z,1.3
2018-03-31T01:19:22.790Z,1.3
2018-03-31T01:20:25.161Z,1.3
2018-03-31T01:21:27.532Z,1.3
2018-03-31T01:22:29.893Z,1.3
2018-03-31T01:23:32.571Z,1.3
2018-03-31T01:24:34.948Z,1.3
2018-03-31T01:25:37.316Z,1.2
2018-03-31T01:26:39.689Z,1.3
2018-03-31T01:27:42.063Z,1.2
2018-03-31T01:28:44.429Z,1.2
2018-03-31T01:29:46.801Z,1.3
2018-03-31T01:30:49.173Z,1.2
2018-03-31T01:31:51.544Z,1.2
2018-03-31T01:32:53.910Z,1.2
2018-03-31T01:33:56.296Z,1.2
2018-03-31T01:34:58.664Z,1.2
2018-03-31T01:36:01.027Z,1.2
2018-03-31T01:37:03.677Z,1.2
2018-03-31T01:38:06.315Z,1.2
2018-03-31T01:39:08.682Z,1.2
2018-03-31T01:40:11.051Z,1.1
2018-03-31T01:41:13.414Z,1.2
2018-03-31T01:42:15.791Z,1.2
2018-03-31T01:43:18.170Z,1.2
2018-03-31T01:44:20.534Z,1.1
2018-03-31T01:45:22.904Z,1.2
2018-03-31T01:46:25.275Z,1.2
2018-03-31T01:47:27.650Z,1.2
2018-03-31T01:48:30.037Z,1.2
2018-03-31T01:49:32.680Z,1.1
2018-03-31T01:50:35.045Z,1.1
2018-03-31T01:51:37.416Z,1.1
2018-03-31T01:52:39.835Z,1.1
2018-03-31T01:53:42.149Z,1.1
2018-03-31T01:54:44.820Z,1.1
2018-03-31T01:55:47.180Z,1.1
2018-03-31T01:56:49.556Z,1.2
2018-03-31T01:57:52.201Z,1.1
2018-03-31T01:58:54.568Z,1.1
2018-03-31T01:59:56.947Z,1.1
2018-03-31T02:00:59.319Z,1.1
2018-03-31T02:02:01.692Z,1.1
2018-03-31T02:03:04.060Z,1.1
2018-03-31T02:04:06.738Z,1.2
2018-03-31T02:05:09.404Z,1.2
2018-03-31T02:06:11.775Z,1.2
2018-03-31T02:07:14.129Z,1.2
2018-03-31T02:08:16.502Z,1.2
2018-03-31T02:09:19.165Z,1.1
2018-03-31T02:10:21.532Z,1.1
2018-03-31T02:11:24.182Z,1.1
2018-03-31T02:12:26.853Z,1.2
2018-03-31T02:13:29.209Z,1.1
2018-03-31T02:14:31.561Z,1.2
2018-03-31T02:15:33.931Z,1.2
2018-03-31T02:16:36.299Z,1.1
2018-03-31T02:17:38.948Z,1.1
2018-03-31T02:18:41.319Z,1.1
2018-03-31T02:19:43.975Z,1.1
2018-03-31T02:20:46.341Z,1.1
2018-03-31T02:21:48.715Z,1.1
2018-03-31T02:22:51.085Z,1.1
2018-03-31T02:23:53.449Z,1.1
2018-03-31T02:24:56.110Z,1.1
2018-03-31T02:25:58.486Z,1.1
2018-03-31T02:27:00.858Z,1.1
2018-03-31T02:28:03.518Z,1.1
2018-03-31T02:29:06.165Z,1.1
2018-03-31T02:30:08.538Z,1.1
2018-03-31T02:31:10.910Z,1.1
2018-03-31T02:32:13.269Z,1.1
2018-03-31T02:33:15.638Z,1.1
2018-03-31T02:34:18.001Z,1.1
2018-03-31T02:35:20.649Z,1.1
2018-03-31T02:36:23.018Z,1.1
2018-03-31T02:37:25.391Z,1.1
2018-03-31T02:38:28.050Z,1.1
2018-03-31T02:39:30.428Z,1.1
2018-03-31T02:40:32.805Z,1.1
2018-03-31T02:41:35.459Z,1.1
2018-03-31T02:42:38.120Z,1
2018-03-31T02:43:40.485Z,1.1
2018-03-31T02:44:42.865Z,1
2018-03-31T02:45:45.562Z,1
2018-03-31T02:46:47.926Z,1
2018-03-31T02:47:50.594Z,1
2018-03-31T02:48:52.968Z,1
2018-03-31T02:49:55.605Z,1.1
2018-03-31T02:50:57.983Z,1.1
2018-03-31T02:52:00.343Z,1.1
2018-03-31T02:53:03.010Z,1
2018-03-31T02:54:05.674Z,1
2018-03-31T02:55:08.619Z,1.1
2018-03-31T02:56:10.998Z,1.1
2018-03-31T02:57:13.373Z,1.1
2018-03-31T02:58:15.733Z,1.1
2018-03-31T02:59:18.113Z,1.1
2018-03-31T03:00:20.490Z,1.1
2018-03-31T03:01:23.143Z,1.1
2018-03-31T03:02:25.516Z,1
2018-03-31T03:03:27.884Z,1
2018-03-31T03:04:30.245Z,1
2018-03-31T03:05:32.630Z,1
2018-03-31T03:06:34.986Z,1
2018-03-31T03:07:37.653Z,1.1
2018-03-31T03:08:40.037Z,1
2018-03-31T03:09:42.405Z,1.1
2018-03-31T03:10:44.770Z,1.1
2018-03-31T03:11:47.137Z,1
2018-03-31T03:12:49.786Z,1
2018-03-31T03:13:52.150Z,1
2018-03-31T03:14:54.516Z,1
2018-03-31T03:15:56.891Z,1.1
2018-03-31T03:16:59.273Z,1.1
2018-03-31T03:18:01.630Z,1.1
2018-03-31T03:19:04.010Z,1.1
2018-03-31T03:20:06.375Z,1
2018-03-31T03:21:09.023Z,1
2018-03-31T03:22:11.681Z,1
2018-03-31T03:23:14.045Z,1
2018-03-31T03:24:16.406Z,1
2018-03-31T03:25:18.781Z,1.1
2018-03-31T03:26:21.141Z,1.1
2018-03-31T03:27:23.508Z,1.1
2018-03-31T03:28:25.876Z,1.1
2018-03-31T03:29:28.240Z,1.1
2018-03-31T03:30:30.613Z,1.1
2018-03-31T03:31:32.991Z,1
2018-03-31T03:32:35.345Z,1.1
2018-03-31T03:33:38.002Z,1.1
2018-03-31T03:34:40.379Z,1.1
2018-03-31T03:35:43.032Z,1
2018-03-31T03:36:45.693Z,1
2018-03-31T03:37:48.057Z,1
2018-03-31T03:38:50.426Z,1
2018-03-31T03:39:52.813Z,1
2018-03-31T03:40:55.179Z,1
2018-03-31T03:41:57.827Z,1
2018-03-31T03:43:00.470Z,1
2018-03-31T03:44:02.836Z,1.1
2018-03-31T03:45:05.486Z,1.1
2018-03-31T03:46:08.165Z,1
2018-03-31T03:47:10.550Z,1.1
2018-03-31T03:48:12.914Z,1
2018-03-31T03:49:15.591Z,1.1
2018-03-31T03:50:18.247Z,1.1
2018-03-31T03:51:20.622Z,1.1
2018-03-31T03:52:22.990Z,1.1
2018-03-31T03:53:25.360Z,1.1
2018-03-31T03:54:28.027Z,1.1
2018-03-31T03:55:30.405Z,1.1
2018-03-31T03:56:32.779Z,1
2018-03-31T03:57:35.141Z,1.1
2018-03-31T03:58:37.798Z,1.1
2018-03-31T03:59:40.442Z,1.1
2018-03-31T04:00:42.805Z,1.1
2018-03-31T04:01:45.496Z,1.1
2018-03-31T04:02:47.866Z,1.1
2018-03-31T04:03:50.229Z,1
2018-03-31T04:04:52.603Z,1
2018-03-31T04:05:54.972Z,1.1
2018-03-31T04:06:57.335Z,1
2018-03-31T04:07:59.710Z,1.1
2018-03-31T04:09:02.073Z,1.1
2018-03-31T04:10:04.445Z,1.1
2018-03-31T04:11:06.829Z,1
2018-03-31T04:12:09.479Z,1.1
2018-03-31T04:13:11.848Z,1.1
2018-03-31T04:14:14.216Z,1
2018-03-31T04:15:16.595Z,1.1
2018-03-31T04:16:18.967Z,1.1
2018-03-31T04:17:21.338Z,1.1
2018-03-31T04:18:23.707Z,1.1
2018-03-31T04:19:26.072Z,1.1
2018-03-31T04:20:28.721Z,1.1
2018-03-31T04:21:31.099Z,1.1
2018-03-31T04:22:33.460Z,1.1
2018-03-31T04:23:35.835Z,1.1
2018-03-31T04:24:38.496Z,1
2018-03-31T04:25:40.863Z,1
2018-03-31T04:26:43.236Z,1
2018-03-31T04:27:45.610Z,1
2018-03-31T04:28:47.980Z,1
2018-03-31T04:29:50.354Z,1
2018-03-31T04:30:52.730Z,1.1
2018-03-31T04:31:55.097Z,1.1
2018-03-31T04:32:57.473Z,1
2018-03-31T04:33:59.841Z,1.1
2018-03-31T04:35:02.213Z,1.1
2018-03-31T04:36:04.581Z,1
2018-03-31T04:37:07.220Z,1.1
2018-03-31T04:38:09.589Z,1
2018-03-31T04:39:12.239Z,1.1
2018-03-31T04:40:14.608Z,1.1
2018-03-31T04:41:16.976Z,1.1
2018-03-31T04:42:19.341Z,1.1
2018-03-31T04:43:21.721Z,1.1
2018-03-31T04:44:24.075Z,1.1
2018-03-31T04:45:26.733Z,1.1
2018-03-31T04:46:29.391Z,1
2018-03-31T04:47:31.751Z,1.1
2018-03-31T04:48:34.123Z,1
2018-03-31T04:49:36.493Z,1.1
2018-03-31T04:50:39.149Z,1.1
2018-03-31T04:51:41.526Z,1.1
2018-03-31T04:52:43.904Z,1.1
2018-03-31T04:53:46.272Z,1.1
2018-03-31T04:54:48.933Z,1.1
2018-03-31T04:55:51.309Z,1
2018-03-31T04:56:53.673Z,1.1
2018-03-31T04:57:56.045Z,1.1
2018-03-31T04:58:58.410Z,1.1
2018-03-31T05:00:00.788Z,1.1
2018-03-31T05:01:03.452Z,1
2018-03-31T05:02:05.815Z,1.1
2018-03-31T05:03:08.182Z,1.1
2018-03-31T05:04:11.116Z,1.1
2018-03-31T05:05:13.487Z,1.1
2018-03-31T05:06:16.163Z,1.1
2018-03-31T05:07:18.530Z,1.1
2018-03-31T05:08:20.889Z,1
2018-03-31T05:09:23.269Z,1.1
2018-03-31T05:10:25.649Z,1
2018-03-31T05:11:28.023Z,1.1
2018-03-31T05:12:30.392Z,1.2
2018-03-31T05:13:32.761Z,1.1
2018-03-31T05:14:35.131Z,1.1
2018-03-31T05:15:37.505Z,1.1
2018-03-31T05:16:39.867Z,1.2
2018-03-31T05:17:42.288Z,1.1
2018-03-31T05:18:44.613Z,1.1
2018-03-31T05:19:46.993Z,1.2
2018-03-31T05:20:49.371Z,1.2
2018-03-31T05:21:51.744Z,1.1
2018-03-31T05:22:54.120Z,1.1
2018-03-31T05:23:56.490Z,1.1
2018-03-31T05:24:58.858Z,1.1
2018-03-31T05:26:01.235Z,1.1
2018-03-31T05:27:03.608Z,1.1
2018-03-31T05:28:05.985Z,1.1
2018-03-31T05:29:08.645Z,1.1
2018-03-31T05:30:11.010Z,1.2
2018-03-31T05:31:13.378Z,1.1
2018-03-31T05:32:15.766Z,1.3
2018-03-31T05:33:18.117Z,1.3
2018-03-31T05:34:20.508Z,1.3
2018-03-31T05:35:22.917Z,1.3
2018-03-31T05:36:25.247Z,1.2
2018-03-31T05:37:27.617Z,1.1
2018-03-31T05:38:29.994Z,1.1
2018-03-31T05:39:32.356Z,1.2
2018-03-31T05:40:34.734Z,1.2
2018-03-31T05:41:37.412Z,1.2
2018-03-31T05:42:39.764Z,1.1
2018-03-31T05:43:42.701Z,1.1
2018-03-31T05:44:45.361Z,1.1
2018-03-31T05:45:47.920Z,1.1
2018-03-31T05:46:50.297Z,1.2
2018-03-31T05:47:52.670Z,1.1
2018-03-31T05:48:55.041Z,1.1
2018-03-31T05:49:57.415Z,1.1
2018-03-31T05:50:59.771Z,1.2
2018-03-31T05:52:02.142Z,1.2
2018-03-31T05:53:04.528Z,1.2
2018-03-31T05:54:06.897Z,1.2
2018-03-31T05:55:09.538Z,1.1
2018-03-31T05:56:12.204Z,1.1
2018-03-31T05:57:14.593Z,1.1
2018-03-31T05:58:16.950Z,1.2
2018-03-31T05:59:19.317Z,1.1
2018-03-31T06:00:21.674Z,1.2
2018-03-31T06:01:24.345Z,1.2
2018-03-31T06:02:26.715Z,1.3
2018-03-31T06:03:29.136Z,1.2
2018-03-31T06:04:31.457Z,1.3
2018-03-31T06:05:33.824Z,1.2
2018-03-31T06:06:36.200Z,1.2
2018-03-31T06:07:38.581Z,1.2
2018-03-31T06:08:40.952Z,1.2
2018-03-31T06:09:43.318Z,1.3
2018-03-31T06:10:45.688Z,1.3
2018-03-31T06:11:48.345Z,1.3
2018-03-31T06:12:50.711Z,1.2
2018-03-31T06:13:53.087Z,1.2
2018-03-31T06:14:55.458Z,1.2
2018-03-31T06:15:57.835Z,1.2
2018-03-31T06:17:00.196Z,1.3
2018-03-31T06:18:02.858Z,1.3
2018-03-31T06:19:05.227Z,1.3
2018-03-31T06:20:07.598Z,1.3
2018-03-31T06:21:09.985Z,1.3
2018-03-31T06:22:13.023Z,1.3
2018-03-31T06:23:15.390Z,1.2
2018-03-31T06:24:18.055Z,1.2
2018-03-31T06:25:20.725Z,1.2
2018-03-31T06:26:23.096Z,1.2
2018-03-31T06:27:25.461Z,1.2
2018-03-31T06:28:27.834Z,1.3
2018-03-31T06:29:30.205Z,1.3
2018-03-31T06:30:32.920Z,1.3
2018-03-31T06:31:35.255Z,1.3
2018-03-31T06:32:37.923Z,1.2
2018-03-31T06:33:40.851Z,1.3
2018-03-31T06:34:43.232Z,1.3
2018-03-31T06:35:45.601Z,1.3
2018-03-31T06:36:47.968Z,1.3
2018-03-31T06:37:50.336Z,1.2
2018-03-31T06:38:52.714Z,1.3
2018-03-31T06:39:55.084Z,1.3
2018-03-31T06:40:57.748Z,1.3
2018-03-31T06:42:00.105Z,1.3
2018-03-31T06:43:02.486Z,1.4
2018-03-31T06:44:04.859Z,1.4
2018-03-31T06:45:07.510Z,1.4
2018-03-31T06:46:10.164Z,1.4
2018-03-31T06:47:12.537Z,1.4
2018-03-31T06:48:15.193Z,1.3
2018-03-31T06:49:17.566Z,1.4
2018-03-31T06:50:19.923Z,1.4
2018-03-31T06:51:22.596Z,1.4
2018-03-31T06:52:24.961Z,1.4
2018-03-31T06:53:27.340Z,1.4
2018-03-31T06:54:29.706Z,1.5
2018-03-31T06:55:32.068Z,1.5
2018-03-31T06:56:34.438Z,1.4
2018-03-31T06:57:36.822Z,1.5
2018-03-31T06:58:39.749Z,1.5
2018-03-31T06:59:42.122Z,1.5
2018-03-31T07:00:45.073Z,1.5
2018-03-31T07:01:47.442Z,1.5
2018-03-31T07:02:49.816Z,1.5
2018-03-31T07:03:52.192Z,1.5
2018-03-31T07:04:54.552Z,1.5
2018-03-31T07:05:56.933Z,1.6
2018-03-31T07:06:59.301Z,1.5
2018-03-31T07:08:01.669Z,1.5
2018-03-31T07:09:04.033Z,1.5
2018-03-31T07:10:06.411Z,1.6
2018-03-31T07:11:08.790Z,1.6
2018-03-31T07:12:11.724Z,1.6
2018-03-31T07:13:14.096Z,1.7
2018-03-31T07:14:16.472Z,1.6
2018-03-31T07:15:19.432Z,1.6
2018-03-31T07:16:21.786Z,1.7
2018-03-31T07:17:24.440Z,1.7
2018-03-31T07:18:26.804Z,1.6
2018-03-31T07:19:29.454Z,1.6
2018-03-31T07:20:32.114Z,1.6
2018-03-31T07:21:34.486Z,1.6
2018-03-31T07:22:37.166Z,1.6
2018-03-31T07:23:39.552Z,1.6
2018-03-31T07:24:41.925Z,1.6
2018-03-31T07:25:44.295Z,1.7
2018-03-31T07:26:46.672Z,1.6
2018-03-31T07:27:49.320Z,1.6
2018-03-31T07:28:51.699Z,1.7
2018-03-31T07:29:54.066Z,1.6
2018-03-31T07:30:56.994Z,1.7
2018-03-31T07:31:59.374Z,1.8
2018-03-31T07:33:01.751Z,1.7
2018-03-31T07:34:04.398Z,1.7
2018-03-31T07:35:07.070Z,1.7
2018-03-31T07:36:10.005Z,1.7
2018-03-31T07:37:12.665Z,1.7
2018-03-31T07:38:15.039Z,1.8
2018-03-31T07:39:17.417Z,1.7
2018-03-31T07:40:19.793Z,1.8
2018-03-31T07:41:22.450Z,1.8
2018-03-31T07:42:24.812Z,1.9
2018-03-31T07:43:27.181Z,1.9
2018-03-31T07:44:29.561Z,1.8
2018-03-31T07:45:31.919Z,1.8
2018-03-31T07:46:34.297Z,1.8
2018-03-31T07:47:36.675Z,1.8
2018-03-31T07:48:39.040Z,1.9
2018-03-31T07:49:41.726Z,1.8
2018-03-31T07:50:44.102Z,1.8
2018-03-31T07:51:46.474Z,1.8
2018-03-31T07:52:49.126Z,1.8
2018-03-31T07:53:51.777Z,1.9
2018-03-31T07:54:54.149Z,2
2018-03-31T07:55:56.534Z,2.2
2018-03-31T07:56:59.187Z,2
2018-03-31T07:58:01.560Z,1.9
2018-03-31T07:59:04.223Z,1.9
2018-03-31T08:00:06.591Z,1.8
2018-03-31T08:01:08.959Z,1.8
2018-03-31T08:02:11.334Z,1.8
2018-03-31T08:03:13.985Z,1.8
2018-03-31T08:04:16.374Z,1.9
2018-03-31T08:05:18.745Z,1.8
2018-03-31T08:06:21.384Z,1.8
2018-03-31T08:07:23.759Z,1.8
2018-03-31T08:08:26.417Z,1.8
2018-03-31T08:09:28.790Z,1.7
2018-03-31T08:10:31.168Z,1.8
2018-03-31T08:11:33.538Z,1.8
2018-03-31T08:12:35.909Z,1.8
2018-03-31T08:13:38.841Z,1.7
2018-03-31T08:14:41.219Z,1.7
2018-03-31T08:15:44.150Z,1.8
2018-03-31T08:16:46.532Z,1.8
2018-03-31T08:17:48.897Z,1.8
2018-03-31T08:18:51.273Z,1.7
2018-03-31T08:19:53.644Z,1.8
2018-03-31T08:20:56.310Z,1.9
2018-03-31T08:21:58.684Z,1.8
2018-03-31T08:23:01.049Z,1.9
2018-03-31T08:24:03.429Z,1.9
2018-03-31T08:25:05.807Z,1.9
2018-03-31T08:26:08.471Z,1.9
2018-03-31T08:27:10.842Z,1.9
2018-03-31T08:28:13.792Z,1.9
2018-03-31T08:29:16.155Z,1.9
2018-03-31T08:30:18.588Z,1.9
2018-03-31T08:31:20.900Z,1.8
2018-03-31T08:32:23.273Z,1.9
2018-03-31T08:33:26.240Z,1.9
2018-03-31T08:34:28.610Z,1.9
2018-03-31T08:35:30.979Z,2
2018-03-31T08:36:33.358Z,2
2018-03-31T08:37:36.007Z,2
2018-03-31T08:38:38.385Z,2.1
2018-03-31T08:39:41.038Z,2
2018-03-31T08:40:43.411Z,2
2018-03-31T08:41:45.844Z,2
2018-03-31T08:42:48.433Z,2.1
2018-03-31T08:43:50.804Z,2
2018-03-31T08:44:53.161Z,2
2018-03-31T08:45:55.546Z,1.9
2018-03-31T08:46:58.205Z,1.9
2018-03-31T08:48:00.575Z,1.9
2018-03-31T08:49:02.953Z,1.9
2018-03-31T08:50:05.320Z,1.9
2018-03-31T08:51:07.695Z,1.9
2018-03-31T08:52:10.650Z,1.9
2018-03-31T08:53:13.010Z,1.9
2018-03-31T08:54:15.387Z,2
2018-03-31T08:55:17.759Z,2
2018-03-31T08:56:21.172Z,1.9
2018-03-31T08:57:23.539Z,2
2018-03-31T08:58:25.905Z,2
2018-03-31T08:59:28.277Z,1.9
2018-03-31T09:00:30.657Z,1.9
2018-03-31T09:01:33.704Z,2
2018-03-31T09:02:36.257Z,2
2018-03-31T09:03:38.936Z,2
2018-03-31T09:04:41.580Z,1.9
2018-03-31T09:05:43.957Z,1.9
2018-03-31T09:06:46.323Z,1.9
2018-03-31T09:07:48.980Z,1.9
2018-03-31T09:08:51.632Z,1.9
2018-03-31T09:09:54.024Z,1.9
2018-03-31T09:10:56.402Z,1.9
2018-03-31T09:11:58.786Z,1.8
2018-03-31T09:13:01.161Z,1.8
2018-03-31T09:14:03.563Z,1.9
2018-03-31T09:15:05.935Z,1.9
2018-03-31T09:16:08.957Z,1.9
2018-03-31T09:17:11.335Z,1.9
2018-03-31T09:18:14.022Z,1.9
2018-03-31T09:19:16.392Z,1.9
2018-03-31T09:20:19.055Z,1.8
2018-03-31T09:21:21.427Z,1.8
2018-03-31T09:22:23.870Z,1.9
2018-03-31T09:23:26.358Z,1.8
2018-03-31T09:24:28.724Z,1.8
2018-03-31T09:25:31.097Z,1.8
2018-03-31T09:26:33.475Z,1.9
2018-03-31T09:27:35.848Z,1.9
2018-03-31T09:28:38.229Z,1.9
2018-03-31T09:29:40.602Z,1.8
2018-03-31T09:30:42.980Z,1.9
2018-03-31T09:31:45.357Z,2
2018-03-31T09:32:47.734Z,2
2018-03-31T09:33:50.098Z,2.1
2018-03-31T09:34:52.461Z,2.1
2018-03-31T09:35:54.824Z,2
2018-03-31T09:36:57.192Z,2
2018-03-31T09:37:59.566Z,2.1
2018-03-31T09:39:02.219Z,2.1
2018-03-31T09:40:04.596Z,2.1
2018-03-31T09:41:06.972Z,2.1
2018-03-31T09:42:09.338Z,2.2
2018-03-31T09:43:11.716Z,2.2
2018-03-31T09:44:14.104Z,2.1
2018-03-31T09:45:16.466Z,2.1
2018-03-31T09:46:19.118Z,2.2
2018-03-31T09:47:21.480Z,2.2
2018-03-31T09:48:23.856Z,2.2
2018-03-31T09:49:26.227Z,2.1
2018-03-31T09:50:28.597Z,2.3
2018-03-31T09:51:30.950Z,2.3
2018-03-31T09:52:33.337Z,2.3
2018-03-31T09:53:35.692Z,2.3
2018-03-31T09:54:38.362Z,2.2
2018-03-31T09:55:40.744Z,2.4
2018-03-31T09:56:43.123Z,2.3
2018-03-31T09:57:45.495Z,2.2
2018-03-31T09:58:47.865Z,2.2
2018-03-31T09:59:50.243Z,2.4
2018-03-31T10:00:52.614Z,2.3
2018-03-31T10:01:54.971Z,2.4
2018-03-31T10:02:57.626Z,2.5
2018-03-31T10:04:00.268Z,2.5
2018-03-31T10:05:02.934Z,2.5
2018-03-31T10:06:05.307Z,2.5
2018-03-31T10:07:07.961Z,2.5
2018-03-31T10:08:10.333Z,2.5
2018-03-31T10:09:12.715Z,2.5
2018-03-31T10:10:15.087Z,2.5
2018-03-31T10:11:17.462Z,2.5
2018-03-31T10:12:19.841Z,2.5
2018-03-31T10:13:22.213Z,2.5
2018-03-31T10:14:24.896Z,2.5
2018-03-31T10:15:27.273Z,2.6
2018-03-31T10:16:29.632Z,2.7
2018-03-31T10:17:32.023Z,2.5
2018-03-31T10:18:35.253Z,2.5
2018-03-31T10:19:37.622Z,2.6
2018-03-31T10:20:40.275Z,2.7
2018-03-31T10:21:42.654Z,2.5
2018-03-31T10:22:45.303Z,2.6
2018-03-31T10:23:47.677Z,2.7
2018-03-31T10:24:50.329Z,2.7
2018-03-31T10:25:52.705Z,2.7
2018-03-31T10:26:55.098Z,2.7
2018-03-31T10:27:57.468Z,2.8
2018-03-31T10:28:59.839Z,2.8
2018-03-31T10:30:02.218Z,2.9
2018-03-31T10:31:04.867Z,2.9
2018-03-31T10:32:07.244Z,2.9
2018-03-31T10:33:09.626Z,3
2018-03-31T10:34:11.985Z,3
2018-03-31T10:35:14.775Z,3
2018-03-31T10:36:17.689Z,2.9
2018-03-31T10:37:20.062Z,3
2018-03-31T10:38:22.430Z,3
2018-03-31T10:39:25.089Z,3
2018-03-31T10:40:27.470Z,3
2018-03-31T10:41:29.839Z,3
2018-03-31T10:42:32.508Z,3
2018-03-31T10:43:34.868Z,2.9
2018-03-31T10:44:37.240Z,2.7
2018-03-31T10:45:39.615Z,2.8
2018-03-31T10:46:41.990Z,2.8
2018-03-31T10:47:44.357Z,2.8
2018-03-31T10:48:46.736Z,2.8
2018-03-31T10:49:49.101Z,2.6
2018-03-31T10:50:51.466Z,2.7
2018-03-31T10:51:53.848Z,2.8
2018-03-31T10:52:56.207Z,2.8
2018-03-31T10:53:58.584Z,2.8
2018-03-31T10:55:00.964Z,2.7
2018-03-31T10:56:03.540Z,2.8
2018-03-31T10:57:05.907Z,2.9
2018-03-31T10:58:08.280Z,2.8
2018-03-31T10:59:10.644Z,2.9
2018-03-31T11:00:13.021Z,2.8
2018-03-31T11:01:15.399Z,2.8
2018-03-31T11:02:17.761Z,2.9
2018-03-31T11:03:20.417Z,2.8
2018-03-31T11:04:22.794Z,2.8
2018-03-31T11:05:25.449Z,2.9
2018-03-31T11:06:28.107Z,2.9
2018-03-31T11:07:30.768Z,2.8
2018-03-31T11:08:33.143Z,2.8
2018-03-31T11:09:35.509Z,2.9
2018-03-31T11:10:38.156Z,2.8
2018-03-31T11:11:40.531Z,2.8
2018-03-31T11:12:42.899Z,2.8
2018-03-31T11:13:45.275Z,2.7
2018-03-31T11:14:47.634Z,2.8
2018-03-31T11:15:50.015Z,2.7
2018-03-31T11:16:52.402Z,2.7
2018-03-31T11:17:54.776Z,2.7
2018-03-31T11:18:57.157Z,2.7
2018-03-31T11:19:59.814Z,2.7
2018-03-31T11:21:02.474Z,2.7
2018-03-31T11:22:04.843Z,2.8
2018-03-31T11:23:07.223Z,2.8
2018-03-31T11:24:09.586Z,2.8
2018-03-31T11:25:11.960Z,2.8
2018-03-31T11:26:14.330Z,2.7
2018-03-31T11:27:16.705Z,2.7
2018-03-31T11:28:19.069Z,2.8
2018-03-31T11:29:21.720Z,2.7
2018-03-31T11:30:24.091Z,2.7
2018-03-31T11:31:26.470Z,2.8
2018-03-31T11:32:28.848Z,2.7
2018-03-31T11:33:31.226Z,2.7
2018-03-31T11:34:33.598Z,2.7
2018-03-31T11:35:35.984Z,2.6
2018-03-31T11:36:38.350Z,2.7
2018-03-31T11:37:40.714Z,2.6
2018-03-31T11:38:43.086Z,2.6
2018-03-31T11:39:45.460Z,2.6
2018-03-31T11:40:48.118Z,2.6
2018-03-31T11:41:50.769Z,2.7
2018-03-31T11:42:53.140Z,2.6
2018-03-31T11:43:55.517Z,2.6
2018-03-31T11:44:57.894Z,2.6
2018-03-31T11:46:00.275Z,2.5
2018-03-31T11:47:02.927Z,2.5
2018-03-31T11:48:05.300Z,2.5
2018-03-31T11:49:07.675Z,2.5
2018-03-31T11:50:10.046Z,2.5
2018-03-31T11:51:12.695Z,2.5
2018-03-31T11:52:15.064Z,2.5
2018-03-31T11:53:17.426Z,2.5
2018-03-31T11:54:19.805Z,2.5
2018-03-31T11:55:22.166Z,2.5
2018-03-31T11:56:24.828Z,2.5
2018-03-31T11:57:27.210Z,2.4
2018-03-31T11:58:29.577Z,2.5
2018-03-31T11:59:31.956Z,2.5
2018-03-31T12:00:34.336Z,2.5
2018-03-31T12:01:36.705Z,2.5
2018-03-31T12:02:39.360Z,2.4
2018-03-31T12:03:41.735Z,2.5
2018-03-31T12:04:44.110Z,2.4
2018-03-31T12:05:46.472Z,2.4
2018-03-31T12:06:48.856Z,2.4
2018-03-31T12:07:51.815Z,2.4
2018-03-31T12:08:54.176Z,2.4
2018-03-31T12:09:57.295Z,2.4
2018-03-31T12:10:59.908Z,2.4
2018-03-31T12:12:02.416Z,2.4
2018-03-31T12:13:05.338Z,2.4
2018-03-31T12:14:07.687Z,2.3
2018-03-31T12:15:10.338Z,2.4
2018-03-31T12:16:13.007Z,2.4
2018-03-31T12:17:15.369Z,2.3
2018-03-31T12:18:17.743Z,2.3
2018-03-31T12:19:20.409Z,2.3
2018-03-31T12:20:23.062Z,2.3
2018-03-31T12:21:25.456Z,2.2
2018-03-31T12:22:27.825Z,2.2
2018-03-31T12:23:30.465Z,2.3
2018-03-31T12:24:32.836Z,2.3
2018-03-31T12:25:35.207Z,2.3
2018-03-31T12:26:37.587Z,2.3
2018-03-31T12:27:39.971Z,2.3
2018-03-31T12:28:42.622Z,2.1
2018-03-31T12:29:45.598Z,2.2
2018-03-31T12:30:47.982Z,2.2
2018-03-31T12:31:50.356Z,2.2
2018-03-31T12:32:53.022Z,2.3
2018-03-31T12:33:55.387Z,2.3
2018-03-31T12:34:57.760Z,2.2
2018-03-31T12:36:00.124Z,2.2
2018-03-31T12:37:02.685Z,2.2
2018-03-31T12:38:05.166Z,2.2
2018-03-31T12:39:07.548Z,2.3
2018-03-31T12:40:09.926Z,2.3
2018-03-31T12:41:12.303Z,2.3
2018-03-31T12:42:14.760Z,2.3
2018-03-31T12:43:17.474Z,2.3
2018-03-31T12:44:20.145Z,2.3
2018-03-31T12:45:22.853Z,2.3
2018-03-31T12:46:25.652Z,2.3
2018-03-31T12:47:28.044Z,2.3
2018-03-31T12:48:30.703Z,2.3
2018-03-31T12:49:33.062Z,2.2
2018-03-31T12:50:35.442Z,2.3
2018-03-31T12:51:38.109Z,2.3
2018-03-31T12:52:40.774Z,2.5
2018-03-31T12:53:43.157Z,2.6
2018-03-31T12:54:45.510Z,2.5
2018-03-31T12:55:48.012Z,2.4
2018-03-31T12:56:50.493Z,2.4
2018-03-31T12:57:52.862Z,2.4
2018-03-31T12:58:55.320Z,2.4
2018-03-31T12:59:57.688Z,2.4
2018-03-31T13:01:00.059Z,2.3
2018-03-31T13:02:02.435Z,2.3
2018-03-31T13:03:04.804Z,2.4
2018-03-31T13:04:07.164Z,2.3
2018-03-31T13:05:12.858Z,2.3
2018-03-31T13:06:17.230Z,2.3
2018-03-31T13:07:22.062Z,2.3
2018-03-31T13:08:25.332Z,2.4
2018-03-31T13:09:30.903Z,2.4
2018-03-31T13:10:35.389Z,2.4
2018-03-31T13:11:37.988Z,2.4
2018-03-31T13:12:40.361Z,2.4
2018-03-31T13:13:42.730Z,2.5
2018-03-31T13:14:45.378Z,2.5
2018-03-31T13:15:47.756Z,2.4
2018-03-31T13:16:50.165Z,2.4
2018-03-31T13:17:52.536Z,2.4
2018-03-31T13:18:54.947Z,2.3
2018-03-31T13:19:57.319Z,2.3
2018-03-31T13:20:59.694Z,2.3
2018-03-31T13:22:02.106Z,2.3
2018-03-31T13:23:04.472Z,2.2
2018-03-31T13:24:06.865Z,2.2
2018-03-31T13:25:09.237Z,2.2
2018-03-31T13:26:11.623Z,2.1
2018-03-31T13:27:14.001Z,2.1
2018-03-31T13:28:16.375Z,2.1
2018-03-31T13:29:18.785Z,2
2018-03-31T13:30:21.416Z,2
2018-03-31T13:31:24.082Z,2
2018-03-31T13:32:26.445Z,1.9
2018-03-31T13:33:28.819Z,1.9
2018-03-31T13:34:31.195Z,1.9
2018-03-31T13:35:33.563Z,1.9
2018-03-31T13:36:36.521Z,1.8
2018-03-31T13:37:38.873Z,1.8
2018-03-31T13:38:41.249Z,1.7
2018-03-31T13:39:43.635Z,1.8
2018-03-31T13:40:45.998Z,1.8
2018-03-31T13:41:48.367Z,1.7
2018-03-31T13:42:51.021Z,1.7
2018-03-31T13:43:53.392Z,1.7
2018-03-31T13:44:55.773Z,1.7
2018-03-31T13:45:58.143Z,1.7
2018-03-31T13:47:00.805Z,1.6
2018-03-31T13:48:03.171Z,1.6
2018-03-31T13:49:05.551Z,1.5
2018-03-31T13:50:07.921Z,1.4
2018-03-31T13:51:10.295Z,1.5
2018-03-31T13:52:12.947Z,1.4
2018-03-31T13:53:15.338Z,1.5
2018-03-31T13:54:17.699Z,1.4
2018-03-31T13:55:20.077Z,1.4
2018-03-31T13:56:22.442Z,1.4
2018-03-31T13:57:24.814Z,1.4
2018-03-31T13:58:27.192Z,1.3
2018-03-31T13:59:29.566Z,1.3
2018-03-31T14:00:32.214Z,1.4
2018-03-31T14:01:34.584Z,1.4
2018-03-31T14:02:37.005Z,1.4
2018-03-31T14:03:39.347Z,1.4
2018-03-31T14:04:41.726Z,1.2
2018-03-31T14:05:44.371Z,1.2
2018-03-31T14:06:46.746Z,1.3
2018-03-31T14:07:49.118Z,1.3
2018-03-31T14:08:51.493Z,1.4
2018-03-31T14:09:53.861Z,1.4
2018-03-31T14:10:56.235Z,1.3
2018-03-31T14:11:58.601Z,1.3
2018-03-31T14:13:00.984Z,1.2
2018-03-31T14:14:03.354Z,1.2
2018-03-31T14:15:05.740Z,1.2
2018-03-31T14:16:08.405Z,1.2
2018-03-31T14:17:10.777Z,1.2
2018-03-31T14:18:13.159Z,1.1
2018-03-31T14:19:15.807Z,1.2
2018-03-31T14:20:18.168Z,1.2
2018-03-31T14:21:20.831Z,1.2
2018-03-31T14:22:23.494Z,1.2
2018-03-31T14:23:25.859Z,1.2
2018-03-31T14:24:28.515Z,1.1
2018-03-31T14:25:30.884Z,1.2
2018-03-31T14:26:33.266Z,1.3